aviador You're here:

LFQQ Decoded Metar

LILLE in FRANCE
Report Time2017-11-25 00:00:00
UTC Time2017-11-25 00:10:48
Flight Rules mvfr MVFR
Wind310° at 04 kt
W.Decomp.*RWY 26: 2.6 kt HW 3.1 kt RCW
RWY 02: 1.4 kt HW 3.8 kt LCW
W.Rank310° ranks 31
Current wind is below 310° avg. (7.7)
Visibility9999 m
Phenomena:Shower Rain
Clouds:Broken 010 Hf
Expected CloudBase > 400 ft AGL from Temp-Dew spread
Ceiling1,000 ft
Temp04°C (ISA -11)
Dew Point03°C (93% RH)
AAT1.1°C
QNH1011 hPa
Density Alt-948 ft
Elevation171 ft
Report Wrong Elevation
Raw Report
METAR LFQQ 250000Z AUTO 31004KT CAVOK 04/03 Q1011 TEMPO 2000 SHRA BKN010
BKN020CB=

Extra information for LFQQ:More info

Metar Taf Metar & Taf Last 4 Metars F.Rules Stats Wind Profile Meteogram Temp Stats Airport Information Weather charts Add Link Nearby VenuesMetar ALERT Operation Metar Decoded Social comments